createdAt,value
2022-12-28T00:04:54.000Z,5.17
2022-12-28T00:09:54.000Z,5.15
2022-12-28T00:14:54.000Z,5.15
2022-12-28T00:19:54.000Z,5.04
2022-12-28T00:24:54.000Z,5.07
2022-12-28T00:29:54.000Z,5.11
2022-12-28T00:34:54.000Z,5.06
2022-12-28T00:39:54.000Z,5.07
2022-12-28T00:44:54.000Z,5.05
2022-12-28T00:49:54.000Z,5.04
2022-12-28T00:54:55.000Z,5.05
2022-12-28T00:59:54.000Z,5.01
2022-12-28T01:04:55.000Z,4.97
2022-12-28T01:09:55.000Z,5.04
2022-12-28T01:14:54.000Z,5.05
2022-12-28T01:19:54.000Z,5.08
2022-12-28T01:24:54.000Z,5.07
2022-12-28T01:29:54.000Z,5.05
2022-12-28T01:34:54.000Z,5.10
2022-12-28T01:39:55.000Z,5.10
2022-12-28T01:44:54.000Z,5.12
2022-12-28T01:49:55.000Z,5.18
2022-12-28T01:54:55.000Z,5.19
2022-12-28T01:59:55.000Z,5.12
2022-12-28T02:04:55.000Z,5.06
2022-12-28T02:09:55.000Z,5.01
2022-12-28T02:14:54.000Z,4.95
2022-12-28T02:19:55.000Z,4.89
2022-12-28T02:24:55.000Z,4.81
2022-12-28T02:29:55.000Z,4.74
2022-12-28T02:34:54.000Z,4.67
2022-12-28T02:39:55.000Z,4.67
2022-12-28T02:44:55.000Z,4.67
2022-12-28T02:49:54.000Z,4.57
2022-12-28T02:54:54.000Z,4.45
2022-12-28T02:59:55.000Z,4.38
2022-12-28T03:04:55.000Z,4.33
2022-12-28T03:09:55.000Z,4.23
2022-12-28T03:14:55.000Z,4.20
2022-12-28T03:19:55.000Z,4.21
2022-12-28T03:24:55.000Z,4.16
2022-12-28T03:29:55.000Z,4.09
2022-12-28T03:34:55.000Z,4.07
2022-12-28T03:39:55.000Z,4.08
2022-12-28T03:44:55.000Z,3.98
2022-12-28T03:49:55.000Z,3.92
2022-12-28T03:54:55.000Z,3.93
2022-12-28T03:59:55.000Z,3.92
2022-12-28T04:04:55.000Z,3.85
2022-12-28T04:09:55.000Z,3.76
2022-12-28T04:14:55.000Z,3.70
2022-12-28T04:19:55.000Z,3.58
2022-12-28T04:24:56.000Z,3.56
2022-12-28T04:29:55.000Z,3.56
2022-12-28T04:34:55.000Z,3.58
2022-12-28T04:39:56.000Z,3.62
2022-12-28T04:44:55.000Z,3.72
2022-12-28T04:49:56.000Z,3.75
2022-12-28T04:54:55.000Z,3.80
2022-12-28T04:59:55.000Z,3.83
2022-12-28T05:04:55.000Z,3.89
2022-12-28T05:09:55.000Z,3.91
2022-12-28T05:14:55.000Z,3.94
2022-12-28T05:19:55.000Z,3.99
2022-12-28T05:24:55.000Z,3.89
2022-12-28T05:29:55.000Z,3.98
2022-12-28T05:34:55.000Z,4.03
2022-12-28T05:39:55.000Z,4.13
2022-12-28T05:44:55.000Z,4.19
2022-12-28T05:49:55.000Z,4.24
2022-12-28T05:54:55.000Z,4.31
2022-12-28T05:59:55.000Z,4.31
2022-12-28T06:04:55.000Z,4.42
2022-12-28T06:09:55.000Z,4.37
2022-12-28T06:14:55.000Z,4.23
2022-12-28T06:19:55.000Z,4.23
2022-12-28T06:24:55.000Z,4.22
2022-12-28T06:29:55.000Z,4.18
2022-12-28T06:34:55.000Z,4.18
2022-12-28T06:39:55.000Z,4.18
2022-12-28T06:44:55.000Z,3.99
2022-12-28T06:49:55.000Z,4.00
2022-12-28T06:54:55.000Z,4.00
2022-12-28T06:59:55.000Z,4.02
2022-12-28T07:04:55.000Z,3.98
2022-12-28T07:09:55.000Z,3.98
2022-12-28T07:15:10.000Z,3.97
2022-12-28T07:19:55.000Z,3.95
2022-12-28T07:24:55.000Z,3.92
2022-12-28T07:29:55.000Z,3.88
2022-12-28T07:34:55.000Z,3.94
2022-12-28T07:39:55.000Z,4.00
2022-12-28T07:44:55.000Z,4.05
2022-12-28T07:49:55.000Z,4.15
2022-12-28T07:54:55.000Z,4.24
2022-12-28T07:59:55.000Z,4.29
2022-12-28T08:04:55.000Z,4.29
2022-12-28T08:09:55.000Z,4.31
2022-12-28T08:14:55.000Z,4.34
2022-12-28T08:19:55.000Z,4.37
2022-12-28T08:24:55.000Z,4.42
2022-12-28T08:29:55.000Z,4.43
2022-12-28T08:34:55.000Z,4.51
2022-12-28T08:39:55.000Z,4.66
2022-12-28T08:44:55.000Z,4.76
2022-12-28T08:49:55.000Z,4.79
2022-12-28T08:54:55.000Z,4.94
2022-12-28T08:59:55.000Z,4.97
2022-12-28T09:04:55.000Z,5.11
2022-12-28T09:09:55.000Z,5.33
2022-12-28T09:14:55.000Z,5.53
2022-12-28T09:19:55.000Z,5.77
2022-12-28T09:24:55.000Z,5.99
2022-12-28T09:29:55.000Z,6.09
2022-12-28T09:34:55.000Z,6.24
2022-12-28T09:39:55.000Z,6.33
2022-12-28T09:44:55.000Z,6.19
2022-12-28T09:49:55.000Z,6.30
2022-12-28T09:54:55.000Z,6.41
2022-12-28T09:59:55.000Z,6.43
2022-12-28T10:04:55.000Z,6.46
2022-12-28T10:09:55.000Z,6.36
2022-12-28T10:14:55.000Z,6.39
2022-12-28T10:19:55.000Z,6.26
2022-12-28T10:24:55.000Z,6.26
2022-12-28T10:29:55.000Z,6.39
2022-12-28T10:34:55.000Z,6.39
2022-12-28T10:39:55.000Z,6.50
2022-12-28T10:44:55.000Z,6.56
2022-12-28T10:49:56.000Z,6.55
2022-12-28T10:54:55.000Z,6.59
2022-12-28T10:59:56.000Z,6.41
2022-12-28T11:04:55.000Z,6.39
2022-12-28T11:09:55.000Z,6.54
2022-12-28T11:14:55.000Z,6.55
2022-12-28T11:19:55.000Z,6.69
2022-12-28T11:24:55.000Z,6.87
2022-12-28T11:29:55.000Z,7.00
2022-12-28T11:34:55.000Z,7.05
2022-12-28T11:39:55.000Z,7.05
2022-12-28T11:44:55.000Z,7.17
2022-12-28T11:50:10.000Z,7.25
2022-12-28T11:54:55.000Z,7.29
2022-12-28T11:59:55.000Z,7.38
2022-12-28T12:04:56.000Z,7.42
2022-12-28T12:09:55.000Z,7.38
2022-12-28T12:14:55.000Z,7.39
2022-12-28T12:19:55.000Z,7.34
2022-12-28T12:24:55.000Z,7.34
2022-12-28T12:29:56.000Z,7.33
2022-12-28T12:34:55.000Z,7.34
2022-12-28T12:39:55.000Z,7.40
2022-12-28T12:44:55.000Z,7.47
2022-12-28T12:49:55.000Z,7.49
2022-12-28T12:54:55.000Z,7.47
2022-12-28T12:59:55.000Z,7.42
2022-12-28T13:04:55.000Z,7.34
2022-12-28T13:09:55.000Z,7.34
2022-12-28T13:14:55.000Z,7.34
2022-12-28T13:19:55.000Z,7.34
2022-12-28T13:24:55.000Z,7.38
2022-12-28T13:29:55.000Z,7.40
2022-12-28T13:34:55.000Z,7.39
2022-12-28T13:39:55.000Z,7.34
2022-12-28T13:44:55.000Z,7.30
2022-12-28T13:49:55.000Z,7.24
2022-12-28T13:54:56.000Z,7.16
2022-12-28T13:59:56.000Z,7.10
2022-12-28T14:04:55.000Z,7.07
2022-12-28T14:09:55.000Z,7.04
2022-12-28T14:14:55.000Z,7.01
2022-12-28T14:19:55.000Z,7.01
2022-12-28T14:24:55.000Z,7.05
2022-12-28T14:29:55.000Z,7.13
2022-12-28T14:34:55.000Z,7.14
2022-12-28T14:39:55.000Z,7.13
2022-12-28T14:44:55.000Z,7.10
2022-12-28T14:49:55.000Z,7.03
2022-12-28T14:54:55.000Z,7.03
2022-12-28T14:59:55.000Z,6.99
2022-12-28T15:04:55.000Z,7.02
2022-12-28T15:09:55.000Z,7.02
2022-12-28T15:14:55.000Z,7.00
2022-12-28T15:19:56.000Z,6.96
2022-12-28T15:24:55.000Z,6.90
2022-12-28T15:29:55.000Z,6.88
2022-12-28T15:34:56.000Z,6.88
2022-12-28T15:39:55.000Z,6.80
2022-12-28T15:44:55.000Z,6.74
2022-12-28T15:49:55.000Z,6.72
2022-12-28T15:54:55.000Z,6.64
2022-12-28T15:59:55.000Z,6.56
2022-12-28T16:04:55.000Z,6.53
2022-12-28T16:09:55.000Z,6.31
2022-12-28T16:14:55.000Z,6.16
2022-12-28T16:19:55.000Z,6.02
2022-12-28T16:24:55.000Z,5.95
2022-12-28T16:29:55.000Z,5.83
2022-12-28T16:34:55.000Z,5.84
2022-12-28T16:39:55.000Z,5.89
2022-12-28T16:44:56.000Z,5.83
2022-12-28T16:49:55.000Z,5.72
2022-12-28T16:54:56.000Z,5.55
2022-12-28T16:59:56.000Z,5.39
2022-12-28T17:04:56.000Z,5.24
2022-12-28T17:09:56.000Z,5.08
2022-12-28T17:14:56.000Z,4.96
2022-12-28T17:19:55.000Z,4.89
2022-12-28T17:24:55.000Z,4.75
2022-12-28T17:29:56.000Z,4.69
2022-12-28T17:34:56.000Z,4.61
2022-12-28T17:39:56.000Z,4.59
2022-12-28T17:44:56.000Z,4.52
2022-12-28T17:49:55.000Z,4.50
2022-12-28T17:54:55.000Z,4.48
2022-12-28T17:59:55.000Z,4.54
2022-12-28T18:04:55.000Z,4.49
2022-12-28T18:09:55.000Z,4.41
2022-12-28T18:14:55.000Z,4.33
2022-12-28T18:19:55.000Z,4.30
2022-12-28T18:24:55.000Z,4.23
2022-12-28T18:29:56.000Z,4.23
2022-12-28T18:34:56.000Z,4.19
2022-12-28T18:39:55.000Z,4.12
2022-12-28T18:44:55.000Z,4.05
2022-12-28T18:49:56.000Z,3.97
2022-12-28T18:54:55.000Z,3.90
2022-12-28T18:59:55.000Z,3.86
2022-12-28T19:04:56.000Z,3.83
2022-12-28T19:09:56.000Z,3.74
2022-12-28T19:14:55.000Z,3.68
2022-12-28T19:19:55.000Z,3.58
2022-12-28T19:24:56.000Z,3.56
2022-12-28T19:29:55.000Z,3.56
2022-12-28T19:34:56.000Z,3.55
2022-12-28T19:39:55.000Z,3.44
2022-12-28T19:44:55.000Z,3.42
2022-12-28T19:49:55.000Z,3.38
2022-12-28T19:54:55.000Z,3.34
2022-12-28T19:59:55.000Z,3.28
2022-12-28T20:04:56.000Z,3.28
2022-12-28T20:09:55.000Z,3.25
2022-12-28T20:14:55.000Z,3.20
2022-12-28T20:19:55.000Z,3.20
2022-12-28T20:24:55.000Z,3.17
2022-12-28T20:29:56.000Z,3.16
2022-12-28T20:34:55.000Z,3.11
2022-12-28T20:39:55.000Z,3.09
2022-12-28T20:44:56.000Z,3.04
2022-12-28T20:49:55.000Z,3.02
2022-12-28T20:54:55.000Z,2.98
2022-12-28T20:59:56.000Z,2.93
2022-12-28T21:04:55.000Z,2.87
2022-12-28T21:09:55.000Z,2.87
2022-12-28T21:14:56.000Z,2.85
2022-12-28T21:19:56.000Z,2.82
2022-12-28T21:24:55.000Z,2.75
2022-12-28T21:29:55.000Z,2.71
2022-12-28T21:34:55.000Z,2.68
2022-12-28T21:39:55.000Z,2.62
2022-12-28T21:44:56.000Z,2.57
2022-12-28T21:49:56.000Z,2.54
2022-12-28T21:54:56.000Z,2.56
2022-12-28T21:59:56.000Z,2.53
2022-12-28T22:04:56.000Z,2.53
2022-12-28T22:09:56.000Z,2.60
2022-12-28T22:14:55.000Z,2.56
2022-12-28T22:19:56.000Z,2.53
2022-12-28T22:24:56.000Z,2.55
2022-12-28T22:29:56.000Z,2.55
2022-12-28T22:34:56.000Z,2.56
2022-12-28T22:39:56.000Z,2.54
2022-12-28T22:44:56.000Z,2.57
2022-12-28T22:49:56.000Z,2.61
2022-12-28T22:54:56.000Z,2.66
2022-12-28T22:59:56.000Z,2.69
2022-12-28T23:04:56.000Z,2.73
2022-12-28T23:09:56.000Z,2.70
2022-12-28T23:14:56.000Z,2.76
2022-12-28T23:19:56.000Z,2.85
2022-12-28T23:24:56.000Z,2.87
2022-12-28T23:29:56.000Z,2.88
2022-12-28T23:34:56.000Z,2.89
2022-12-28T23:39:56.000Z,2.91
2022-12-28T23:44:56.000Z,2.93
2022-12-28T23:49:56.000Z,2.98
2022-12-28T23:54:56.000Z,3.01
2022-12-28T23:59:56.000Z,3.06
